sensor_id;sensor_type;location;lat;lon;timestamp;P1;durP1;ratioP1;P2;durP2;ratioP2
33830;SDS011;20137;48.834;8.732;2023-05-24T00:01:51;9.30;;;4.20;;
33830;SDS011;20137;48.834;8.732;2023-05-24T00:04:20;6.72;;;4.35;;
33830;SDS011;20137;48.834;8.732;2023-05-24T00:06:46;16.45;;;5.05;;
33830;SDS011;20137;48.834;8.732;2023-05-24T00:09:12;8.57;;;4.43;;
33830;SDS011;20137;48.834;8.732;2023-05-24T00:11:38;9.82;;;4.20;;
33830;SDS011;20137;48.834;8.732;2023-05-24T00:14:04;10.05;;;4.10;;
33830;SDS011;20137;48.834;8.732;2023-05-24T00:16:31;11.35;;;4.70;;
33830;SDS011;20137;48.834;8.732;2023-05-24T00:18:57;10.07;;;4.25;;
33830;SDS011;20137;48.834;8.732;2023-05-24T00:21:23;10.48;;;4.22;;
33830;SDS011;20137;48.834;8.732;2023-05-24T00:23:49;9.48;;;4.40;;
33830;SDS011;20137;48.834;8.732;2023-05-24T00:26:16;12.35;;;4.68;;
33830;SDS011;20137;48.834;8.732;2023-05-24T00:28:42;9.07;;;4.25;;
33830;SDS011;20137;48.834;8.732;2023-05-24T00:31:08;9.20;;;4.75;;
33830;SDS011;20137;48.834;8.732;2023-05-24T00:33:34;10.15;;;4.65;;
33830;SDS011;20137;48.834;8.732;2023-05-24T00:36:00;10.02;;;4.25;;
33830;SDS011;20137;48.834;8.732;2023-05-24T00:38:26;8.88;;;4.72;;
33830;SDS011;20137;48.834;8.732;2023-05-24T00:40:52;13.00;;;4.68;;
33830;SDS011;20137;48.834;8.732;2023-05-24T00:43:20;7.68;;;4.50;;
33830;SDS011;20137;48.834;8.732;2023-05-24T00:45:46;14.13;;;4.65;;
33830;SDS011;20137;48.834;8.732;2023-05-24T00:48:12;12.85;;;4.80;;
33830;SDS011;20137;48.834;8.732;2023-05-24T00:50:38;10.60;;;4.60;;
33830;SDS011;20137;48.834;8.732;2023-05-24T00:53:05;10.68;;;4.63;;
33830;SDS011;20137;48.834;8.732;2023-05-24T00:55:35;11.75;;;4.93;;
33830;SDS011;20137;48.834;8.732;2023-05-24T00:58:01;8.98;;;4.70;;
33830;SDS011;20137;48.834;8.732;2023-05-24T01:00:28;8.40;;;4.65;;
33830;SDS011;20137;48.834;8.732;2023-05-24T01:02:54;9.25;;;4.30;;
33830;SDS011;20137;48.834;8.732;2023-05-24T01:05:21;12.32;;;4.47;;
33830;SDS011;20137;48.834;8.732;2023-05-24T01:07:58;11.10;;;4.20;;
33830;SDS011;20137;48.834;8.732;2023-05-24T01:10:31;12.40;;;4.80;;
33830;SDS011;20137;48.834;8.732;2023-05-24T01:13:11;17.55;;;5.00;;
33830;SDS011;20137;48.834;8.732;2023-05-24T01:15:41;11.05;;;5.03;;
33830;SDS011;20137;48.834;8.732;2023-05-24T01:18:12;12.80;;;4.97;;
33830;SDS011;20137;48.834;8.732;2023-05-24T01:20:40;11.60;;;4.90;;
33830;SDS011;20137;48.834;8.732;2023-05-24T01:28:18;18.52;;;5.90;;
33830;SDS011;20137;48.834;8.732;2023-05-24T01:30:45;14.48;;;5.00;;
33830;SDS011;20137;48.834;8.732;2023-05-24T01:33:11;12.48;;;5.15;;
33830;SDS011;20137;48.834;8.732;2023-05-24T01:35:37;10.52;;;4.38;;
33830;SDS011;20137;48.834;8.732;2023-05-24T01:38:07;11.55;;;4.85;;
33830;SDS011;20137;48.834;8.732;2023-05-24T01:40:34;11.60;;;4.80;;
33830;SDS011;20137;48.834;8.732;2023-05-24T01:50:45;13.18;;;5.10;;
33830;SDS011;20137;48.834;8.732;2023-05-24T01:53:14;20.50;;;5.57;;
33830;SDS011;20137;48.834;8.732;2023-05-24T01:55:42;14.35;;;4.70;;
33830;SDS011;20137;48.834;8.732;2023-05-24T01:58:09;15.88;;;5.22;;
33830;SDS011;20137;48.834;8.732;2023-05-24T02:00:35;11.10;;;4.72;;
33830;SDS011;20137;48.834;8.732;2023-05-24T02:03:03;12.10;;;5.47;;
33830;SDS011;20137;48.834;8.732;2023-05-24T02:05:32;22.08;;;5.55;;
33830;SDS011;20137;48.834;8.732;2023-05-24T02:07:58;11.15;;;4.75;;
33830;SDS011;20137;48.834;8.732;2023-05-24T02:10:24;14.18;;;5.03;;
33830;SDS011;20137;48.834;8.732;2023-05-24T02:12:50;14.68;;;5.28;;
33830;SDS011;20137;48.834;8.732;2023-05-24T02:15:16;13.02;;;5.13;;
33830;SDS011;20137;48.834;8.732;2023-05-24T02:17:42;9.15;;;4.80;;
33830;SDS011;20137;48.834;8.732;2023-05-24T02:20:10;13.18;;;4.55;;
33830;SDS011;20137;48.834;8.732;2023-05-24T02:22:37;14.63;;;5.18;;
33830;SDS011;20137;48.834;8.732;2023-05-24T02:25:03;13.32;;;4.88;;
33830;SDS011;20137;48.834;8.732;2023-05-24T02:27:29;14.25;;;5.25;;
33830;SDS011;20137;48.834;8.732;2023-05-24T02:29:55;18.88;;;5.80;;
33830;SDS011;20137;48.834;8.732;2023-05-24T02:32:21;15.38;;;5.20;;
33830;SDS011;20137;48.834;8.732;2023-05-24T02:34:47;19.08;;;5.75;;
33830;SDS011;20137;48.834;8.732;2023-05-24T02:37:14;14.55;;;4.80;;
33830;SDS011;20137;48.834;8.732;2023-05-24T02:39:40;17.33;;;5.75;;
33830;SDS011;20137;48.834;8.732;2023-05-24T02:42:06;15.90;;;6.03;;
33830;SDS011;20137;48.834;8.732;2023-05-24T02:44:33;15.27;;;4.93;;
33830;SDS011;20137;48.834;8.732;2023-05-24T02:46:59;14.10;;;5.00;;
33830;SDS011;20137;48.834;8.732;2023-05-24T02:49:25;12.05;;;5.15;;
33830;SDS011;20137;48.834;8.732;2023-05-24T02:51:51;13.85;;;5.60;;
33830;SDS011;20137;48.834;8.732;2023-05-24T02:54:17;16.50;;;4.70;;
33830;SDS011;20137;48.834;8.732;2023-05-24T02:56:44;15.52;;;5.85;;
33830;SDS011;20137;48.834;8.732;2023-05-24T02:59:10;11.98;;;4.85;;
33830;SDS011;20137;48.834;8.732;2023-05-24T03:01:36;20.33;;;5.40;;
33830;SDS011;20137;48.834;8.732;2023-05-24T03:04:02;16.50;;;5.88;;
33830;SDS011;20137;48.834;8.732;2023-05-24T03:06:28;17.50;;;5.07;;
33830;SDS011;20137;48.834;8.732;2023-05-24T03:08:55;15.25;;;5.15;;
33830;SDS011;20137;48.834;8.732;2023-05-24T03:11:22;20.40;;;5.13;;
33830;SDS011;20137;48.834;8.732;2023-05-24T03:13:48;14.70;;;4.80;;
33830;SDS011;20137;48.834;8.732;2023-05-24T03:16:14;13.77;;;5.45;;
33830;SDS011;20137;48.834;8.732;2023-05-24T03:18:41;15.93;;;4.90;;
33830;SDS011;20137;48.834;8.732;2023-05-24T03:21:06;14.25;;;4.57;;
33830;SDS011;20137;48.834;8.732;2023-05-24T03:23:32;15.52;;;5.35;;
33830;SDS011;20137;48.834;8.732;2023-05-24T03:25:58;15.68;;;5.55;;
33830;SDS011;20137;48.834;8.732;2023-05-24T03:28:24;13.25;;;4.72;;
33830;SDS011;20137;48.834;8.732;2023-05-24T03:30:49;15.05;;;4.63;;
33830;SDS011;20137;48.834;8.732;2023-05-24T03:33:15;15.30;;;5.75;;
33830;SDS011;20137;48.834;8.732;2023-05-24T03:35:41;15.07;;;6.15;;
33830;SDS011;20137;48.834;8.732;2023-05-24T03:38:06;19.38;;;6.72;;
33830;SDS011;20137;48.834;8.732;2023-05-24T03:40:34;13.93;;;5.30;;
33830;SDS011;20137;48.834;8.732;2023-05-24T03:43:00;15.75;;;5.63;;
33830;SDS011;20137;48.834;8.732;2023-05-24T03:45:26;16.33;;;5.70;;
33830;SDS011;20137;48.834;8.732;2023-05-24T03:47:51;13.57;;;5.55;;
33830;SDS011;20137;48.834;8.732;2023-05-24T03:50:17;12.50;;;5.38;;
33830;SDS011;20137;48.834;8.732;2023-05-24T03:52:43;13.27;;;5.40;;
33830;SDS011;20137;48.834;8.732;2023-05-24T03:55:08;18.15;;;5.55;;
33830;SDS011;20137;48.834;8.732;2023-05-24T03:57:35;18.48;;;6.07;;
33830;SDS011;20137;48.834;8.732;2023-05-24T04:00:01;12.98;;;5.32;;
33830;SDS011;20137;48.834;8.732;2023-05-24T04:02:27;15.30;;;5.35;;
33830;SDS011;20137;48.834;8.732;2023-05-24T04:04:52;14.40;;;6.10;;
33830;SDS011;20137;48.834;8.732;2023-05-24T04:07:18;16.70;;;5.80;;
33830;SDS011;20137;48.834;8.732;2023-05-24T04:09:44;11.77;;;5.13;;
33830;SDS011;20137;48.834;8.732;2023-05-24T04:12:09;15.25;;;4.93;;
33830;SDS011;20137;48.834;8.732;2023-05-24T04:14:35;14.32;;;4.72;;
33830;SDS011;20137;48.834;8.732;2023-05-24T04:17:01;10.60;;;4.90;;
33830;SDS011;20137;48.834;8.732;2023-05-24T04:19:28;15.95;;;5.57;;
33830;SDS011;20137;48.834;8.732;2023-05-24T04:21:54;12.00;;;5.38;;
33830;SDS011;20137;48.834;8.732;2023-05-24T04:24:19;17.50;;;5.47;;
33830;SDS011;20137;48.834;8.732;2023-05-24T04:26:45;16.58;;;6.00;;
33830;SDS011;20137;48.834;8.732;2023-05-24T04:29:11;19.27;;;5.78;;
33830;SDS011;20137;48.834;8.732;2023-05-24T04:31:37;18.50;;;5.78;;
33830;SDS011;20137;48.834;8.732;2023-05-24T04:34:07;13.98;;;5.07;;
33830;SDS011;20137;48.834;8.732;2023-05-24T04:36:33;20.20;;;5.68;;
33830;SDS011;20137;48.834;8.732;2023-05-24T04:39:00;13.27;;;5.55;;
33830;SDS011;20137;48.834;8.732;2023-05-24T04:41:28;17.25;;;5.15;;
33830;SDS011;20137;48.834;8.732;2023-05-24T04:43:56;14.52;;;5.50;;
33830;SDS011;20137;48.834;8.732;2023-05-24T04:46:23;17.23;;;6.03;;
33830;SDS011;20137;48.834;8.732;2023-05-24T04:48:50;15.65;;;5.97;;
33830;SDS011;20137;48.834;8.732;2023-05-24T04:51:16;17.90;;;6.15;;
33830;SDS011;20137;48.834;8.732;2023-05-24T04:53:42;15.80;;;6.35;;
33830;SDS011;20137;48.834;8.732;2023-05-24T04:56:08;14.05;;;5.75;;
33830;SDS011;20137;48.834;8.732;2023-05-24T04:58:33;15.23;;;5.90;;
33830;SDS011;20137;48.834;8.732;2023-05-24T05:00:59;18.25;;;7.05;;
33830;SDS011;20137;48.834;8.732;2023-05-24T05:03:26;23.33;;;6.88;;
33830;SDS011;20137;48.834;8.732;2023-05-24T05:05:51;16.63;;;6.88;;
33830;SDS011;20137;48.834;8.732;2023-05-24T05:08:17;19.35;;;6.68;;
33830;SDS011;20137;48.834;8.732;2023-05-24T05:10:44;15.50;;;6.45;;
33830;SDS011;20137;48.834;8.732;2023-05-24T05:13:10;15.85;;;6.10;;
33830;SDS011;20137;48.834;8.732;2023-05-24T05:15:36;19.65;;;7.00;;
33830;SDS011;20137;48.834;8.732;2023-05-24T05:18:01;14.55;;;6.18;;
33830;SDS011;20137;48.834;8.732;2023-05-24T05:20:27;21.95;;;6.10;;
33830;SDS011;20137;48.834;8.732;2023-05-24T05:22:53;18.95;;;6.45;;
33830;SDS011;20137;48.834;8.732;2023-05-24T05:25:18;16.63;;;6.30;;
33830;SDS011;20137;48.834;8.732;2023-05-24T05:27:44;14.25;;;5.68;;
33830;SDS011;20137;48.834;8.732;2023-05-24T05:30:10;15.38;;;6.95;;
33830;SDS011;20137;48.834;8.732;2023-05-24T05:32:36;18.77;;;6.63;;
33830;SDS011;20137;48.834;8.732;2023-05-24T05:35:02;17.67;;;6.20;;
33830;SDS011;20137;48.834;8.732;2023-05-24T05:37:28;20.00;;;6.00;;
33830;SDS011;20137;48.834;8.732;2023-05-24T05:39:55;15.95;;;5.75;;
33830;SDS011;20137;48.834;8.732;2023-05-24T05:42:20;12.38;;;5.45;;
33830;SDS011;20137;48.834;8.732;2023-05-24T05:44:46;16.80;;;5.82;;
33830;SDS011;20137;48.834;8.732;2023-05-24T05:47:12;24.25;;;5.50;;
33830;SDS011;20137;48.834;8.732;2023-05-24T05:49:37;11.80;;;5.47;;
33830;SDS011;20137;48.834;8.732;2023-05-24T05:52:03;14.75;;;5.72;;
33830;SDS011;20137;48.834;8.732;2023-05-24T05:54:29;19.42;;;6.30;;
33830;SDS011;20137;48.834;8.732;2023-05-24T05:56:55;24.75;;;6.15;;
33830;SDS011;20137;48.834;8.732;2023-05-24T05:59:22;11.63;;;5.68;;
33830;SDS011;20137;48.834;8.732;2023-05-24T06:01:47;14.25;;;5.43;;
33830;SDS011;20137;48.834;8.732;2023-05-24T06:04:14;15.95;;;6.07;;
33830;SDS011;20137;48.834;8.732;2023-05-24T06:06:40;16.67;;;5.88;;
33830;SDS011;20137;48.834;8.732;2023-05-24T06:09:06;12.88;;;5.60;;
33830;SDS011;20137;48.834;8.732;2023-05-24T06:11:32;20.80;;;5.82;;
33830;SDS011;20137;48.834;8.732;2023-05-24T06:13:58;19.85;;;6.47;;
33830;SDS011;20137;48.834;8.732;2023-05-24T06:16:23;15.30;;;6.05;;
33830;SDS011;20137;48.834;8.732;2023-05-24T06:18:49;21.90;;;5.38;;
33830;SDS011;20137;48.834;8.732;2023-05-24T06:21:15;14.90;;;5.45;;
33830;SDS011;20137;48.834;8.732;2023-05-24T06:23:41;12.40;;;5.05;;
33830;SDS011;20137;48.834;8.732;2023-05-24T06:26:07;16.50;;;5.63;;
33830;SDS011;20137;48.834;8.732;2023-05-24T06:28:36;16.83;;;5.15;;
33830;SDS011;20137;48.834;8.732;2023-05-24T06:31:02;15.82;;;5.30;;
33830;SDS011;20137;48.834;8.732;2023-05-24T06:33:31;19.25;;;5.72;;
33830;SDS011;20137;48.834;8.732;2023-05-24T06:35:57;11.60;;;4.88;;
33830;SDS011;20137;48.834;8.732;2023-05-24T06:38:22;15.75;;;5.22;;
33830;SDS011;20137;48.834;8.732;2023-05-24T06:40:48;18.23;;;5.90;;
33830;SDS011;20137;48.834;8.732;2023-05-24T06:43:14;19.40;;;5.15;;
33830;SDS011;20137;48.834;8.732;2023-05-24T06:45:40;11.80;;;4.65;;
33830;SDS011;20137;48.834;8.732;2023-05-24T06:48:06;18.17;;;5.72;;
33830;SDS011;20137;48.834;8.732;2023-05-24T06:50:31;13.68;;;5.10;;
33830;SDS011;20137;48.834;8.732;2023-05-24T06:52:57;14.88;;;4.93;;
33830;SDS011;20137;48.834;8.732;2023-05-24T06:55:23;16.63;;;5.93;;
33830;SDS011;20137;48.834;8.732;2023-05-24T06:57:48;17.25;;;4.65;;
33830;SDS011;20137;48.834;8.732;2023-05-24T07:00:14;15.65;;;4.95;;
33830;SDS011;20137;48.834;8.732;2023-05-24T07:02:40;14.05;;;4.78;;
33830;SDS011;20137;48.834;8.732;2023-05-24T07:05:06;14.80;;;4.60;;
33830;SDS011;20137;48.834;8.732;2023-05-24T07:07:42;18.48;;;4.55;;
33830;SDS011;20137;48.834;8.732;2023-05-24T07:10:08;22.92;;;5.35;;
33830;SDS011;20137;48.834;8.732;2023-05-24T07:12:36;26.75;;;6.18;;
33830;SDS011;20137;48.834;8.732;2023-05-24T07:15:02;13.00;;;4.63;;
33830;SDS011;20137;48.834;8.732;2023-05-24T07:17:28;20.85;;;5.20;;
33830;SDS011;20137;48.834;8.732;2023-05-24T07:19:55;16.48;;;5.00;;
33830;SDS011;20137;48.834;8.732;2023-05-24T07:22:21;19.73;;;5.50;;
33830;SDS011;20137;48.834;8.732;2023-05-24T07:24:48;13.90;;;5.43;;
33830;SDS011;20137;48.834;8.732;2023-05-24T07:27:14;21.73;;;6.30;;
33830;SDS011;20137;48.834;8.732;2023-05-24T07:29:39;17.33;;;5.28;;
33830;SDS011;20137;48.834;8.732;2023-05-24T07:32:05;21.67;;;5.45;;
33830;SDS011;20137;48.834;8.732;2023-05-24T07:34:31;28.73;;;7.85;;
33830;SDS011;20137;48.834;8.732;2023-05-24T07:36:57;17.55;;;5.07;;
33830;SDS011;20137;48.834;8.732;2023-05-24T07:39:24;16.83;;;5.68;;
33830;SDS011;20137;48.834;8.732;2023-05-24T07:41:51;21.98;;;6.20;;
33830;SDS011;20137;48.834;8.732;2023-05-24T07:44:20;22.88;;;5.60;;
33830;SDS011;20137;48.834;8.732;2023-05-24T07:46:46;16.70;;;6.10;;
33830;SDS011;20137;48.834;8.732;2023-05-24T07:49:11;16.80;;;6.53;;
33830;SDS011;20137;48.834;8.732;2023-05-24T07:51:37;20.70;;;5.60;;
33830;SDS011;20137;48.834;8.732;2023-05-24T07:54:04;30.15;;;5.50;;
33830;SDS011;20137;48.834;8.732;2023-05-24T07:56:29;13.75;;;5.15;;
33830;SDS011;20137;48.834;8.732;2023-05-24T07:58:56;16.58;;;5.05;;
33830;SDS011;20137;48.834;8.732;2023-05-24T08:01:27;19.70;;;5.68;;
33830;SDS011;20137;48.834;8.732;2023-05-24T08:03:54;16.33;;;5.47;;
33830;SDS011;20137;48.834;8.732;2023-05-24T08:06:20;20.63;;;5.82;;
33830;SDS011;20137;48.834;8.732;2023-05-24T08:08:46;19.95;;;5.90;;
33830;SDS011;20137;48.834;8.732;2023-05-24T08:11:12;13.90;;;4.93;;
33830;SDS011;20137;48.834;8.732;2023-05-24T08:13:38;25.23;;;5.55;;
33830;SDS011;20137;48.834;8.732;2023-05-24T08:16:03;17.23;;;4.95;;
33830;SDS011;20137;48.834;8.732;2023-05-24T08:18:29;16.45;;;5.60;;
33830;SDS011;20137;48.834;8.732;2023-05-24T08:20:55;24.00;;;5.68;;
33830;SDS011;20137;48.834;8.732;2023-05-24T08:23:21;20.75;;;5.90;;
33830;SDS011;20137;48.834;8.732;2023-05-24T08:25:47;18.33;;;5.47;;
33830;SDS011;20137;48.834;8.732;2023-05-24T08:28:12;16.65;;;5.28;;
33830;SDS011;20137;48.834;8.732;2023-05-24T08:30:38;15.75;;;4.85;;
33830;SDS011;20137;48.834;8.732;2023-05-24T08:33:04;24.92;;;5.60;;
33830;SDS011;20137;48.834;8.732;2023-05-24T08:35:29;17.08;;;5.47;;
33830;SDS011;20137;48.834;8.732;2023-05-24T08:37:55;20.65;;;5.95;;
33830;SDS011;20137;48.834;8.732;2023-05-24T08:40:21;14.88;;;5.97;;
33830;SDS011;20137;48.834;8.732;2023-05-24T08:42:48;21.95;;;5.90;;
33830;SDS011;20137;48.834;8.732;2023-05-24T08:45:15;15.60;;;6.28;;
33830;SDS011;20137;48.834;8.732;2023-05-24T08:47:42;20.85;;;6.20;;
33830;SDS011;20137;48.834;8.732;2023-05-24T08:50:09;22.38;;;6.25;;
33830;SDS011;20137;48.834;8.732;2023-05-24T08:52:35;22.50;;;5.43;;
33830;SDS011;20137;48.834;8.732;2023-05-24T08:55:03;23.55;;;6.68;;
33830;SDS011;20137;48.834;8.732;2023-05-24T08:57:32;18.00;;;5.68;;
33830;SDS011;20137;48.834;8.732;2023-05-24T09:00:03;14.48;;;5.63;;
33830;SDS011;20137;48.834;8.732;2023-05-24T09:02:30;16.55;;;5.32;;
33830;SDS011;20137;48.834;8.732;2023-05-24T09:04:56;30.45;;;7.20;;
33830;SDS011;20137;48.834;8.732;2023-05-24T09:07:23;19.35;;;6.05;;
33830;SDS011;20137;48.834;8.732;2023-05-24T09:10:11;18.63;;;6.13;;
33830;SDS011;20137;48.834;8.732;2023-05-24T09:12:37;17.92;;;5.90;;
33830;SDS011;20137;48.834;8.732;2023-05-24T09:15:04;20.65;;;6.05;;
33830;SDS011;20137;48.834;8.732;2023-05-24T09:17:31;25.30;;;6.40;;
33830;SDS011;20137;48.834;8.732;2023-05-24T09:19:59;18.80;;;6.05;;
33830;SDS011;20137;48.834;8.732;2023-05-24T09:22:25;18.88;;;5.38;;
33830;SDS011;20137;48.834;8.732;2023-05-24T09:24:52;13.77;;;5.82;;
33830;SDS011;20137;48.834;8.732;2023-05-24T09:27:22;18.13;;;5.80;;
33830;SDS011;20137;48.834;8.732;2023-05-24T09:29:48;20.05;;;6.00;;
33830;SDS011;20137;48.834;8.732;2023-05-24T09:32:16;19.75;;;5.85;;
33830;SDS011;20137;48.834;8.732;2023-05-24T09:34:43;20.40;;;5.75;;
33830;SDS011;20137;48.834;8.732;2023-05-24T09:37:13;19.13;;;5.80;;
33830;SDS011;20137;48.834;8.732;2023-05-24T09:39:41;16.77;;;5.47;;
33830;SDS011;20137;48.834;8.732;2023-05-24T09:42:15;19.10;;;5.57;;
33830;SDS011;20137;48.834;8.732;2023-05-24T09:44:48;20.17;;;5.40;;
33830;SDS011;20137;48.834;8.732;2023-05-24T09:47:27;24.58;;;6.53;;
33830;SDS011;20137;48.834;8.732;2023-05-24T09:49:54;22.23;;;6.07;;
33830;SDS011;20137;48.834;8.732;2023-05-24T09:52:20;18.98;;;5.78;;
33830;SDS011;20137;48.834;8.732;2023-05-24T09:54:46;16.55;;;5.05;;
33830;SDS011;20137;48.834;8.732;2023-05-24T09:57:14;17.73;;;5.00;;
33830;SDS011;20137;48.834;8.732;2023-05-24T09:59:41;22.27;;;6.00;;
33830;SDS011;20137;48.834;8.732;2023-05-24T10:02:11;15.23;;;4.95;;
33830;SDS011;20137;48.834;8.732;2023-05-24T10:04:37;19.42;;;5.63;;
33830;SDS011;20137;48.834;8.732;2023-05-24T10:07:04;15.18;;;5.05;;
33830;SDS011;20137;48.834;8.732;2023-05-24T10:09:31;18.33;;;6.78;;
33830;SDS011;20137;48.834;8.732;2023-05-24T10:12:03;17.63;;;5.43;;
33830;SDS011;20137;48.834;8.732;2023-05-24T10:14:32;18.50;;;5.35;;
33830;SDS011;20137;48.834;8.732;2023-05-24T10:17:00;16.33;;;5.05;;
33830;SDS011;20137;48.834;8.732;2023-05-24T10:19:30;13.82;;;5.20;;
33830;SDS011;20137;48.834;8.732;2023-05-24T10:21:57;17.20;;;5.95;;
33830;SDS011;20137;48.834;8.732;2023-05-24T10:24:25;13.32;;;4.55;;
33830;SDS011;20137;48.834;8.732;2023-05-24T10:26:53;16.58;;;5.32;;
33830;SDS011;20137;48.834;8.732;2023-05-24T10:32:05;16.70;;;4.97;;
33830;SDS011;20137;48.834;8.732;2023-05-24T10:34:34;18.42;;;5.15;;
33830;SDS011;20137;48.834;8.732;2023-05-24T10:37:02;13.07;;;4.75;;
33830;SDS011;20137;48.834;8.732;2023-05-24T10:39:28;14.40;;;4.60;;
33830;SDS011;20137;48.834;8.732;2023-05-24T10:42:00;18.17;;;5.13;;
33830;SDS011;20137;48.834;8.732;2023-05-24T10:44:28;14.68;;;5.10;;
33830;SDS011;20137;48.834;8.732;2023-05-24T10:47:02;15.95;;;5.05;;
33830;SDS011;20137;48.834;8.732;2023-05-24T10:49:58;22.77;;;5.20;;
33830;SDS011;20137;48.834;8.732;2023-05-24T10:52:34;18.50;;;5.50;;
33830;SDS011;20137;48.834;8.732;2023-05-24T10:57:29;14.88;;;5.13;;
33830;SDS011;20137;48.834;8.732;2023-05-24T10:59:57;13.98;;;5.10;;
33830;SDS011;20137;48.834;8.732;2023-05-24T11:02:42;13.30;;;5.13;;
33830;SDS011;20137;48.834;8.732;2023-05-24T11:05:08;16.70;;;4.50;;
33830;SDS011;20137;48.834;8.732;2023-05-24T11:07:39;11.35;;;4.05;;
33830;SDS011;20137;48.834;8.732;2023-05-24T11:10:12;19.05;;;5.40;;
33830;SDS011;20137;48.834;8.732;2023-05-24T11:12:42;15.65;;;4.68;;
33830;SDS011;20137;48.834;8.732;2023-05-24T11:15:09;19.33;;;5.10;;
33830;SDS011;20137;48.834;8.732;2023-05-24T11:20:42;12.35;;;4.10;;
33830;SDS011;20137;48.834;8.732;2023-05-24T11:23:12;13.48;;;4.15;;
33830;SDS011;20137;48.834;8.732;2023-05-24T11:25:39;11.50;;;4.28;;
33830;SDS011;20137;48.834;8.732;2023-05-24T11:28:06;16.52;;;5.10;;
33830;SDS011;20137;48.834;8.732;2023-05-24T11:30:37;13.65;;;4.88;;
33830;SDS011;20137;48.834;8.732;2023-05-24T11:33:17;16.02;;;5.28;;
33830;SDS011;20137;48.834;8.732;2023-05-24T11:35:44;20.85;;;4.97;;
33830;SDS011;20137;48.834;8.732;2023-05-24T11:38:11;12.55;;;4.30;;
33830;SDS011;20137;48.834;8.732;2023-05-24T11:40:41;10.20;;;4.65;;
33830;SDS011;20137;48.834;8.732;2023-05-24T11:45:41;15.43;;;5.25;;
33830;SDS011;20137;48.834;8.732;2023-05-24T11:48:09;14.50;;;4.43;;
33830;SDS011;20137;48.834;8.732;2023-05-24T11:50:41;19.17;;;5.10;;
33830;SDS011;20137;48.834;8.732;2023-05-24T11:53:09;14.48;;;5.28;;
33830;SDS011;20137;48.834;8.732;2023-05-24T11:55:36;14.23;;;4.97;;
33830;SDS011;20137;48.834;8.732;2023-05-24T11:58:05;14.95;;;4.68;;
33830;SDS011;20137;48.834;8.732;2023-05-24T12:00:35;13.55;;;4.22;;
33830;SDS011;20137;48.834;8.732;2023-05-24T12:03:02;12.38;;;4.35;;
33830;SDS011;20137;48.834;8.732;2023-05-24T12:05:31;11.40;;;4.15;;
33830;SDS011;20137;48.834;8.732;2023-05-24T12:08:07;12.85;;;4.80;;
33830;SDS011;20137;48.834;8.732;2023-05-24T12:10:37;15.55;;;4.45;;
33830;SDS011;20137;48.834;8.732;2023-05-24T12:13:04;15.25;;;5.10;;
33830;SDS011;20137;48.834;8.732;2023-05-24T12:15:32;11.38;;;4.25;;
33830;SDS011;20137;48.834;8.732;2023-05-24T12:17:58;14.05;;;4.30;;
33830;SDS011;20137;48.834;8.732;2023-05-24T12:20:25;11.80;;;4.20;;
33830;SDS011;20137;48.834;8.732;2023-05-24T12:22:52;15.32;;;4.22;;
33830;SDS011;20137;48.834;8.732;2023-05-24T12:25:19;11.13;;;3.97;;
33830;SDS011;20137;48.834;8.732;2023-05-24T12:27:53;11.88;;;3.83;;
33830;SDS011;20137;48.834;8.732;2023-05-24T12:30:26;16.05;;;5.22;;
33830;SDS011;20137;48.834;8.732;2023-05-24T12:32:52;19.67;;;4.30;;
33830;SDS011;20137;48.834;8.732;2023-05-24T12:35:22;11.95;;;4.55;;
33830;SDS011;20137;48.834;8.732;2023-05-24T12:37:48;11.20;;;3.92;;
33830;SDS011;20137;48.834;8.732;2023-05-24T12:40:14;12.10;;;4.30;;
33830;SDS011;20137;48.834;8.732;2023-05-24T12:42:52;13.98;;;3.92;;
33830;SDS011;20137;48.834;8.732;2023-05-24T12:45:22;13.35;;;4.07;;
33830;SDS011;20137;48.834;8.732;2023-05-24T12:47:59;11.57;;;3.65;;
33830;SDS011;20137;48.834;8.732;2023-05-24T12:50:26;14.52;;;4.03;;
33830;SDS011;20137;48.834;8.732;2023-05-24T12:52:52;12.57;;;4.18;;
33830;SDS011;20137;48.834;8.732;2023-05-24T12:55:21;18.75;;;4.20;;
33830;SDS011;20137;48.834;8.732;2023-05-24T12:57:50;14.80;;;3.92;;
33830;SDS011;20137;48.834;8.732;2023-05-24T13:02:47;8.98;;;3.38;;
33830;SDS011;20137;48.834;8.732;2023-05-24T13:05:13;12.50;;;3.35;;
33830;SDS011;20137;48.834;8.732;2023-05-24T13:07:39;16.35;;;4.15;;
33830;SDS011;20137;48.834;8.732;2023-05-24T13:10:08;14.90;;;3.97;;
33830;SDS011;20137;48.834;8.732;2023-05-24T13:12:35;12.40;;;3.53;;
33830;SDS011;20137;48.834;8.732;2023-05-24T13:15:01;14.77;;;3.70;;
33830;SDS011;20137;48.834;8.732;2023-05-24T13:17:27;10.20;;;3.10;;
33830;SDS011;20137;48.834;8.732;2023-05-24T13:19:53;12.02;;;3.28;;
33830;SDS011;20137;48.834;8.732;2023-05-24T13:22:19;15.10;;;4.00;;
33830;SDS011;20137;48.834;8.732;2023-05-24T13:24:45;13.95;;;3.28;;
33830;SDS011;20137;48.834;8.732;2023-05-24T13:27:11;7.95;;;3.10;;
33830;SDS011;20137;48.834;8.732;2023-05-24T13:29:37;10.70;;;3.00;;
33830;SDS011;20137;48.834;8.732;2023-05-24T13:32:03;16.77;;;3.80;;
33830;SDS011;20137;48.834;8.732;2023-05-24T13:34:29;12.27;;;3.20;;
33830;SDS011;20137;48.834;8.732;2023-05-24T13:36:55;8.38;;;2.90;;
33830;SDS011;20137;48.834;8.732;2023-05-24T13:39:21;14.63;;;4.15;;
33830;SDS011;20137;48.834;8.732;2023-05-24T13:41:47;10.57;;;3.30;;
33830;SDS011;20137;48.834;8.732;2023-05-24T13:44:13;12.88;;;3.30;;
33830;SDS011;20137;48.834;8.732;2023-05-24T13:46:40;11.60;;;3.33;;
33830;SDS011;20137;48.834;8.732;2023-05-24T13:49:07;11.40;;;3.63;;
33830;SDS011;20137;48.834;8.732;2023-05-24T13:51:34;10.98;;;2.55;;
33830;SDS011;20137;48.834;8.732;2023-05-24T13:54:00;14.98;;;3.08;;
33830;SDS011;20137;48.834;8.732;2023-05-24T13:56:26;11.68;;;2.92;;
33830;SDS011;20137;48.834;8.732;2023-05-24T13:58:56;8.77;;;2.83;;
33830;SDS011;20137;48.834;8.732;2023-05-24T14:01:23;8.85;;;2.78;;
33830;SDS011;20137;48.834;8.732;2023-05-24T14:03:49;15.35;;;3.80;;
33830;SDS011;20137;48.834;8.732;2023-05-24T14:06:14;14.75;;;2.90;;
33830;SDS011;20137;48.834;8.732;2023-05-24T14:08:40;11.65;;;2.83;;
33830;SDS011;20137;48.834;8.732;2023-05-24T14:11:06;11.23;;;3.50;;
33830;SDS011;20137;48.834;8.732;2023-05-24T14:13:32;13.63;;;2.97;;
33830;SDS011;20137;48.834;8.732;2023-05-24T14:15:58;8.40;;;2.58;;
33830;SDS011;20137;48.834;8.732;2023-05-24T14:18:24;9.80;;;3.22;;
33830;SDS011;20137;48.834;8.732;2023-05-24T14:20:49;9.55;;;2.83;;
33830;SDS011;20137;48.834;8.732;2023-05-24T14:23:15;12.77;;;3.22;;
33830;SDS011;20137;48.834;8.732;2023-05-24T14:25:41;12.48;;;3.03;;
33830;SDS011;20137;48.834;8.732;2023-05-24T14:28:06;6.85;;;2.50;;
33830;SDS011;20137;48.834;8.732;2023-05-24T14:30:32;14.23;;;2.92;;
33830;SDS011;20137;48.834;8.732;2023-05-24T14:33:01;9.65;;;3.00;;
33830;SDS011;20137;48.834;8.732;2023-05-24T14:35:27;11.73;;;2.92;;
33830;SDS011;20137;48.834;8.732;2023-05-24T14:37:52;16.88;;;3.65;;
33830;SDS011;20137;48.834;8.732;2023-05-24T14:40:18;9.40;;;3.17;;
33830;SDS011;20137;48.834;8.732;2023-05-24T14:42:44;9.93;;;2.60;;
33830;SDS011;20137;48.834;8.732;2023-05-24T14:45:10;11.50;;;3.15;;
33830;SDS011;20137;48.834;8.732;2023-05-24T14:47:36;8.60;;;2.85;;
33830;SDS011;20137;48.834;8.732;2023-05-24T14:50:02;12.57;;;3.10;;
33830;SDS011;20137;48.834;8.732;2023-05-24T14:52:28;14.10;;;3.10;;
33830;SDS011;20137;48.834;8.732;2023-05-24T14:54:55;12.07;;;2.88;;
33830;SDS011;20137;48.834;8.732;2023-05-24T14:57:20;15.05;;;3.65;;
33830;SDS011;20137;48.834;8.732;2023-05-24T14:59:46;14.05;;;4.20;;
33830;SDS011;20137;48.834;8.732;2023-05-24T15:02:11;16.17;;;4.55;;